Time;durP1;ratioP1;P1;durP2;ratioP2;P2;SDS_P1;SDS_P2;PMS_P1;PMS_P2;Temp;Humidity;BMP_temperature;BMP_pressure;BME280_temperature;BME280_humidity;BME280_pressure;Samples;Min_cycle;Max_cycle;Signal;HPM_P1;HPM_P2
2023/05/29 00:01:42;;;;;;;1999.90;999.90;;;;;;;12.66;100.00;95279.34;5063675;28;20193;-58
2023/05/29 00:04:07;;;;;;;1999.90;999.90;;;;;;;12.66;100.00;95273.88;5063910;28;20205;-57
2023/05/29 00:06:32;;;;;;;1999.90;999.90;;;;;;;12.63;100.00;95274.72;5063849;28;20201;-58
2023/05/29 00:08:58;;;;;;;1999.90;999.90;;;;;;;12.59;100.00;95272.03;5064363;28;20200;-57
2023/05/29 00:11:23;;;;;;;1999.90;999.90;;;;;;;12.55;100.00;95263.13;5064148;28;20264;-57
2023/05/29 00:13:49;;;;;;;1999.90;999.90;;;;;;;12.54;100.00;95267.03;5064400;28;20224;-58
2023/05/29 00:16:14;;;;;;;1999.90;999.90;;;;;;;12.44;100.00;95265.28;5064336;28;20193;-56
2023/05/29 00:18:45;;;;;;;1999.90;999.90;;;;;;;12.40;100.00;95266.53;5063862;28;20197;-56
2023/05/29 00:21:12;;;;;;;1999.90;999.90;;;;;;;12.37;100.00;95267.34;5063672;28;20197;-57
2023/05/29 00:23:37;;;;;;;1999.90;999.90;;;;;;;12.43;100.00;95276.66;5063908;28;20225;-57
2023/05/29 00:26:03;;;;;;;1999.90;999.90;;;;;;;12.42;100.00;95269.63;5063342;28;20213;-57
2023/05/29 00:28:28;;;;;;;1999.90;999.90;;;;;;;12.41;100.00;95274.31;5063786;28;20194;-58
2023/05/29 00:30:53;;;;;;;1999.90;999.90;;;;;;;12.37;100.00;95272.81;5063766;28;20205;-57
2023/05/29 00:33:20;;;;;;;1999.90;999.90;;;;;;;12.32;100.00;95271.34;5063845;28;20205;-57
2023/05/29 00:35:45;;;;;;;1999.90;999.90;;;;;;;12.26;100.00;95269.50;5047084;28;20198;-58
2023/05/29 00:38:11;;;;;;;1999.90;999.90;;;;;;;12.21;100.00;95269.97;5047388;28;20223;-57
2023/05/29 00:40:36;;;;;;;1999.90;999.90;;;;;;;12.20;100.00;95271.19;5047515;28;20272;-57
2023/05/29 00:43:02;;;;;;;1999.90;999.90;;;;;;;12.18;100.00;95263.38;5063358;28;20197;-57
2023/05/29 00:45:27;;;;;;;1999.90;999.90;;;;;;;12.13;100.00;95261.09;5063987;28;20305;-58
2023/05/29 00:47:53;;;;;;;1999.90;999.90;;;;;;;12.12;100.00;95269.72;5063706;28;20448;-57
2023/05/29 00:50:21;;;;;;;1999.90;999.90;;;;;;;12.06;100.00;95255.72;5063242;28;20193;-57
2023/05/29 00:52:47;;;;;;;1999.90;999.90;;;;;;;12.00;100.00;95260.16;5063340;28;20202;-57
2023/05/29 00:55:14;;;;;;;1999.90;999.90;;;;;;;11.98;100.00;95256.28;5046855;28;20284;-57
2023/05/29 00:57:40;;;;;;;1999.90;999.90;;;;;;;11.95;100.00;95257.88;5046928;28;20189;-58
2023/05/29 01:00:08;;;;;;;1999.90;999.90;;;;;;;11.99;100.00;95252.34;5046802;28;20192;-57
2023/05/29 01:02:36;;;;;;;1999.90;999.90;;;;;;;11.94;100.00;95250.06;5063551;28;20272;-57
2023/05/29 01:05:02;;;;;;;1999.90;999.90;;;;;;;11.94;100.00;95261.81;5063570;28;20212;-58
2023/05/29 01:07:27;;;;;;;1999.90;999.90;;;;;;;11.95;100.00;95262.59;5047160;28;20198;-57
2023/05/29 01:09:52;;;;;;;1999.90;999.90;;;;;;;11.91;100.00;95259.88;5063712;28;20259;-57
2023/05/29 01:12:38;;;;;;;1999.90;999.90;;;;;;;11.85;100.00;95264.31;5063376;28;20257;-58
2023/05/29 01:15:10;;;;;;;1999.90;999.90;;;;;;;11.79;100.00;95262.44;5046604;28;20251;-58
2023/05/29 01:17:57;;;;;;;1999.90;999.90;;;;;;;11.67;100.00;95263.78;5046624;28;20200;-57
2023/05/29 01:20:35;;;;;;;1999.90;999.90;;;;;;;11.61;100.00;95259.16;5047004;28;20213;-57
2023/05/29 01:23:10;;;;;;;1999.90;999.90;;;;;;;11.55;100.00;95255.34;5047046;28;20260;-58
2023/05/29 01:25:47;;;;;;;1999.90;999.90;;;;;;;11.48;100.00;95250.72;5046377;28;20213;-58
2023/05/29 01:28:12;;;;;;;1999.90;999.90;;;;;;;11.43;100.00;95261.34;5047175;28;20193;-57
2023/05/29 01:30:40;;;;;;;1999.90;999.90;;;;;;;11.39;100.00;95253.22;5063195;28;20246;-57
2023/05/29 01:33:06;;;;;;;1999.90;999.90;;;;;;;11.26;100.00;95251.44;5063034;28;20221;-58
2023/05/29 01:35:31;;;;;;;1999.90;999.90;;;;;;;11.16;100.00;95255.06;5046427;28;20212;-58
2023/05/29 01:37:57;;;;;;;1999.90;999.90;;;;;;;11.21;100.00;95246.41;5066634;28;20198;-58
2023/05/29 01:40:22;;;;;;;1999.90;999.90;;;;;;;11.26;100.00;95251.44;5050161;28;20280;-57
2023/05/29 01:42:49;;;;;;;1999.90;999.90;;;;;;;11.27;100.00;95252.97;5049939;28;20296;-58
2023/05/29 01:45:16;;;;;;;1999.90;999.90;;;;;;;11.29;100.00;95250.63;5066869;28;20205;-58
2023/05/29 01:47:42;;;;;;;1999.90;999.90;;;;;;;11.29;100.00;95254.13;5050642;28;20181;-58
2023/05/29 01:50:10;;;;;;;1999.90;999.90;;;;;;;11.30;100.00;95250.22;5050264;28;20192;-58
2023/05/29 01:52:36;;;;;;;1999.90;999.90;;;;;;;11.29;100.00;95253.34;5066947;28;20271;-58
2023/05/29 01:55:01;;;;;;;1999.90;999.90;;;;;;;11.18;100.00;95252.72;5049996;28;20190;-58
2023/05/29 01:57:27;;;;;;;1999.90;999.90;;;;;;;11.16;100.00;95255.06;5050311;28;20197;-58
2023/05/29 01:59:54;;;;;;;1999.90;999.90;;;;;;;11.18;100.00;95252.72;5066468;28;20200;-58
2023/05/29 02:02:22;;;;;;;1999.90;999.90;;;;;;;11.20;100.00;95250.34;5066395;28;20201;-58
2023/05/29 02:04:47;;;;;;;1999.90;999.90;;;;;;;11.17;100.00;95245.69;5066203;28;20191;-58
2023/05/29 02:07:12;;;;;;;1999.90;999.90;;;;;;;11.11;100.00;95259.03;5066104;28;20253;-58
2023/05/29 02:09:38;;;;;;;1999.90;999.90;;;;;;;11.08;100.00;95248.16;5066204;28;20185;-58
2023/05/29 02:12:03;;;;;;;1999.90;999.90;;;;;;;11.08;100.00;95248.16;5049558;28;20208;-58
2023/05/29 02:14:31;;;;;;;1999.90;999.90;;;;;;;11.03;100.00;95243.16;5066521;28;20188;-59
2023/05/29 02:16:57;;;;;;;1999.90;999.90;;;;;;;11.01;100.00;95242.78;5065951;28;20193;-58
2023/05/29 02:19:25;;;;;;;1999.90;999.90;;;;;;;10.98;100.00;95243.59;5065852;28;20197;-58
2023/05/29 02:21:50;;;;;;;1999.90;999.90;;;;;;;10.98;100.00;95232.66;5066470;28;20242;-58
2023/05/29 02:24:15;;;;;;;1999.90;999.90;;;;;;;10.96;100.00;95237.78;5066273;28;20196;-58
2023/05/29 02:26:42;;;;;;;1999.90;999.90;;;;;;;10.94;100.00;95235.44;5065758;28;20220;-58
2023/05/29 02:29:07;;;;;;;1999.90;999.90;;;;;;;10.93;100.00;95225.69;5049155;28;20193;-58
2023/05/29 02:31:33;;;;;;;1999.90;999.90;;;;;;;10.88;100.00;95228.09;5049229;28;20197;-58
2023/05/29 02:33:58;;;;;;;1999.90;999.90;;;;;;;10.81;100.00;95228.97;5048997;28;20223;-58
2023/05/29 02:36:24;;;;;;;1999.90;999.90;;;;;;;10.77;100.00;95230.19;5049309;28;20224;-58
2023/05/29 02:38:49;;;;;;;1999.90;999.90;;;;;;;10.78;100.00;95229.03;5049413;28;20244;-59
2023/05/29 02:41:15;;;;;;;1999.90;999.90;;;;;;;10.76;100.00;95226.69;5048984;28;20200;-59
2023/05/29 02:43:40;;;;;;;1999.90;999.90;;;;;;;10.75;100.00;95224.38;5065979;28;20266;-58
2023/05/29 02:46:05;;;;;;;1999.90;999.90;;;;;;;10.73;100.00;95226.72;5065547;28;20262;-58
2023/05/29 02:48:31;;;;;;;1999.90;999.90;;;;;;;10.69;100.00;95228.72;5065086;28;20190;-59
2023/05/29 02:50:56;;;;;;;1999.90;999.90;;;;;;;10.64;100.00;95231.91;5065854;28;20176;-58
2023/05/29 02:53:21;;;;;;;1999.90;999.90;;;;;;;10.60;100.00;95217.53;5065526;28;20196;-58
2023/05/29 02:55:48;;;;;;;1999.90;999.90;;;;;;;10.56;100.00;95216.78;5049096;28;20235;-58
2023/05/29 02:58:16;;;;;;;1999.90;999.90;;;;;;;10.55;100.00;95224.19;5065627;28;20235;-57
2023/05/29 03:00:43;;;;;;;1999.90;999.90;;;;;;;10.52;100.00;95222.28;5065104;28;20206;-57
2023/05/29 03:03:09;;;;;;;1999.90;999.90;;;;;;;10.50;100.00;95227.38;5048559;28;20203;-57
2023/05/29 03:05:34;;;;;;;1999.90;999.90;;;;;;;10.49;100.00;95222.31;5048194;28;20206;-58
2023/05/29 03:08:00;;;;;;;1999.90;999.90;;;;;;;10.46;100.00;95223.91;5064993;28;20197;-58
2023/05/29 03:10:25;;;;;;;1999.90;999.90;;;;;;;10.41;100.00;95210.69;5048335;28;20194;-57
2023/05/29 03:12:51;;;;;;;1999.90;999.90;;;;;;;10.40;100.00;95211.88;5065304;28;20201;-58
2023/05/29 03:15:19;;;;;;;1999.90;999.90;;;;;;;10.41;100.00;95215.41;5064952;28;20246;-58
2023/05/29 03:17:45;;;;;;;1999.90;999.90;;;;;;;10.39;100.00;95215.81;5065309;28;20226;-60
2023/05/29 03:20:11;;;;;;;1999.90;999.90;;;;;;;10.32;100.00;95223.28;5048686;28;20251;-58
2023/05/29 03:22:36;;;;;;;1999.90;999.90;;;;;;;10.23;100.00;95231.16;5065125;28;20235;-58
2023/05/29 03:25:03;;;;;;;1999.90;999.90;;;;;;;10.24;100.00;95221.78;5048221;28;20203;-58
2023/05/29 03:27:29;;;;;;;1999.90;999.90;;;;;;;10.25;100.00;95223.34;5064486;28;20203;-58
2023/05/29 03:29:55;;;;;;;1999.90;999.90;;;;;;;10.27;100.00;95221.00;5064589;28;20195;-58
2023/05/29 03:32:20;;;;;;;1999.90;999.90;;;;;;;10.33;100.00;95220.13;5047718;28;20202;-58
2023/05/29 03:34:47;;;;;;;1999.90;999.90;;;;;;;10.35;100.00;95211.53;5047987;28;20239;-58
2023/05/29 03:37:13;;;;;;;1999.90;999.90;;;;;;;10.44;100.00;95220.03;5064433;28;20220;-58
2023/05/29 03:39:38;;;;;;;1999.90;999.90;;;;;;;10.51;100.00;95212.53;5047833;28;20193;-58
2023/05/29 03:42:03;;;;;;;1999.90;999.90;;;;;;;10.59;100.00;95218.72;5064290;28;20210;-58
2023/05/29 03:44:29;;;;;;;1999.90;999.90;;;;;;;10.67;100.00;95222.91;5064269;28;20196;-58
2023/05/29 03:46:54;;;;;;;1999.90;999.90;;;;;;;10.79;100.00;95230.56;5064440;28;20205;-58
2023/05/29 03:49:19;;;;;;;1999.90;999.90;;;;;;;10.93;100.00;95235.84;5064402;28;20204;-58
2023/05/29 03:51:45;;;;;;;1999.90;999.90;;;;;;;11.01;100.00;95248.25;5064745;28;20177;-59
2023/05/29 03:54:10;;;;;;;1999.90;999.90;;;;;;;11.15;100.00;95254.28;5064736;28;20265;-58
2023/05/29 03:56:36;;;;;;;1999.90;999.90;;;;;;;11.29;100.00;95253.34;5064551;28;20204;-58
2023/05/29 03:59:01;;;;;;;1999.90;999.90;;;;;;;11.45;100.00;95257.03;5063718;28;20243;-58
2023/05/29 04:01:27;;;;;;;1999.90;999.90;;;;;;;11.58;100.00;95260.00;5064366;28;20201;-57
2023/05/29 04:03:53;;;;;;;1999.90;999.90;;;;;;;11.80;100.00;95264.00;5047287;28;20217;-57
2023/05/29 04:06:18;;;;;;;1999.90;999.90;;;;;;;11.91;100.00;95281.03;5063985;28;20235;-58
2023/05/29 04:08:43;;;;;;;1999.90;999.90;;;;;;;12.23;100.00;95284.00;5064032;28;20204;-58
2023/05/29 04:11:09;;;;;;;1999.90;999.90;;;;;;;12.28;100.00;95289.03;5063953;28;20201;-58
2023/05/29 04:13:34;;;;;;;1999.90;999.90;;;;;;;12.40;100.00;95286.47;5047382;28;20274;-59
2023/05/29 04:16:00;;;;;;;1999.90;999.90;;;;;;;12.66;100.00;95298.53;5047246;28;20208;-58
2023/05/29 04:18:25;;;;;;;1999.90;999.90;;;;;;;12.88;100.00;95291.47;5063941;28;20201;-58
2023/05/29 04:20:51;;;;;;;1999.90;999.90;;;;;;;13.18;100.00;95302.28;5063895;28;20259;-57
2023/05/29 04:23:16;;;;;;;1999.90;999.90;;;;;;;13.43;100.00;95315.50;5064157;28;20249;-58
2023/05/29 04:25:43;;;;;;;1999.90;999.90;;;;;;;13.62;100.00;95318.22;5064440;28;20240;-57
2023/05/29 04:28:10;;;;;;;1999.90;999.90;;;;;;;13.82;100.00;95321.72;5063638;28;20236;-57
2023/05/29 04:30:36;;;;;;;1999.90;999.90;;;;;;;13.88;100.00;95320.00;5063564;28;20201;-58
2023/05/29 04:33:01;;;;;;;1999.90;999.90;;;;;;;14.08;100.00;95326.22;5063534;28;20221;-58
2023/05/29 04:35:28;;;;;;;1999.90;999.90;;;;;;;14.20;100.00;95322.81;5063792;28;20208;-57
2023/05/29 04:37:54;;;;;;;1999.90;999.90;;;;;;;14.40;100.00;95323.53;5046873;28;20205;-58
2023/05/29 04:40:20;;;;;;;1999.90;999.90;;;;;;;14.59;100.00;95328.16;5063519;28;20205;-58
2023/05/29 04:42:46;;;;;;;1999.90;999.90;;;;;;;14.74;100.00;95331.31;5047609;28;20279;-59
2023/05/29 04:45:11;;;;;;;1999.90;999.90;;;;;;;14.70;100.00;95331.44;5063440;28;20189;-58
2023/05/29 04:47:42;;;;;;;1999.90;999.90;;;;;;;14.80;100.00;95333.16;5047069;28;20182;-57
2023/05/29 04:50:12;;;;;;;1999.90;999.90;;;;;;;14.97;100.00;95337.41;5046995;28;20268;-58
2023/05/29 04:52:37;;;;;;;1999.90;999.90;;;;;;;15.28;100.00;95337.75;5064000;28;20197;-58
2023/05/29 04:55:03;;;;;;;1999.90;999.90;;;;;;;15.53;100.00;95338.66;5063592;28;20264;-57
2023/05/29 04:57:29;;;;;;;1999.90;999.90;;;;;;;15.83;100.00;95340.94;5063492;28;20294;-58
2023/05/29 04:59:54;;;;;;;1999.90;999.90;;;;;;;16.01;100.00;95341.19;5063459;28;20194;-57
2023/05/29 05:02:20;;;;;;;1999.90;999.90;;;;;;;16.09;100.00;95348.03;5063491;28;20205;-57
2023/05/29 05:04:45;;;;;;;1999.90;999.90;;;;;;;16.26;100.00;95340.41;5063589;28;20193;-57
2023/05/29 05:07:11;;;;;;;1999.90;999.90;;;;;;;16.44;100.00;95344.19;5046616;28;20271;-57
2023/05/29 05:09:36;;;;;;;1999.90;999.90;;;;;;;16.42;100.00;95342.34;5063547;28;20204;-56
2023/05/29 05:12:02;;;;;;;1999.90;999.90;;;;;;;16.63;100.00;95347.16;5067371;28;20197;-57
2023/05/29 05:14:27;;;;;;;1999.90;999.90;;;;;;;16.82;100.00;95343.38;5050714;28;20193;-57
2023/05/29 05:16:53;;;;;;;1999.90;999.90;;;;;;;17.12;100.00;95335.22;5067572;28;20198;-57
2023/05/29 05:19:18;;;;;;;1999.90;999.90;;;;;;;17.31;100.00;95341.69;5050680;28;20198;-60
2023/05/29 05:21:44;;;;;;;1999.90;999.90;;;;;;;18.00;100.00;95345.91;5067125;28;20198;-57
2023/05/29 05:24:09;;;;;;;1999.90;999.90;;;;;;;18.36;100.00;95348.88;5067541;28;20193;-57
2023/05/29 05:26:34;;;;;;;1999.90;999.90;;;;;;;18.63;100.00;95351.75;5067379;28;20210;-57
2023/05/29 05:29:00;;;;;;;1999.90;999.90;;;;;;;19.01;100.00;95354.91;5050574;28;20202;-58
2023/05/29 05:31:26;;;;;;;1999.90;999.90;;;;;;;19.49;100.00;95349.31;5050226;28;20198;-57
2023/05/29 05:33:52;;;;;;;1999.90;999.90;;;;;;;20.10;100.00;95344.63;5050490;28;20201;-58
2023/05/29 05:36:17;;;;;;;1999.90;999.90;;;;;;;20.13;100.00;95347.25;5066722;28;20198;-57
2023/05/29 05:38:42;;;;;;;1999.90;999.90;;;;;;;20.15;100.00;95355.13;5066751;28;20205;-57
2023/05/29 05:41:08;;;;;;;1999.90;999.90;;;;;;;20.81;100.00;95357.50;5066859;28;20196;-57
2023/05/29 05:43:33;;;;;;;1999.90;999.90;;;;;;;20.83;100.00;95352.25;5050024;28;20204;-57
2023/05/29 05:45:58;;;;;;;1999.90;999.90;;;;;;;20.70;100.00;95353.69;5066339;28;20205;-57
2023/05/29 05:48:24;;;;;;;1999.90;999.90;;;;;;;21.48;100.00;95363.28;5067108;28;20201;-57
2023/05/29 05:50:49;;;;;;;1999.90;999.90;;;;;;;21.75;100.00;95357.53;5066679;28;20226;-59
2023/05/29 05:53:16;;;;;;;1999.90;999.90;;;;;;;21.99;100.00;95363.81;5049886;28;20243;-58
2023/05/29 05:55:42;;;;;;;1999.90;999.90;;;;;;;22.00;100.00;95365.34;5049832;28;20205;-57
2023/05/29 05:58:07;;;;;;;1999.90;999.90;;;;;;;22.31;94.22;95374.00;5049592;28;20186;-58
2023/05/29 06:00:32;;;;;;;1999.90;999.90;;;;;;;22.11;94.22;95368.31;5066383;28;20265;-58
2023/05/29 06:02:59;;;;;;;1999.90;999.90;;;;;;;22.62;92.87;95370.00;5066313;28;20205;-59
2023/05/29 06:05:24;;;;;;;1999.90;999.90;;;;;;;21.90;97.07;95366.69;5066664;28;20214;-58
2023/05/29 06:07:50;;;;;;;1999.90;999.90;;;;;;;22.71;95.04;95369.88;5049657;28;20271;-59
2023/05/29 06:10:15;;;;;;;1999.90;999.90;;;;;;;23.18;90.71;95373.13;5066431;28;20197;-58
2023/05/29 06:12:40;;;;;;;1999.90;999.90;;;;;;;23.69;88.25;95372.53;5049483;28;20202;-58
2023/05/29 06:15:06;;;;;;;1999.90;999.90;;;;;;;23.92;84.56;95380.72;5049561;28;20205;-58
2023/05/29 06:17:32;;;;;;;1999.90;999.90;;;;;;;23.72;85.23;95371.56;5066018;28;20194;-58
2023/05/29 06:19:57;;;;;;;1999.90;999.90;;;;;;;24.03;83.17;95375.25;5049323;28;20221;-58
2023/05/29 06:22:23;;;;;;;1999.90;999.90;;;;;;;23.57;86.88;95376.47;5048793;28;20198;-58
2023/05/29 06:24:48;;;;;;;1999.90;999.90;;;;;;;24.28;80.43;95379.31;5066639;28;20292;-60
2023/05/29 06:27:13;;;;;;;1999.90;999.90;;;;;;;24.44;81.38;95370.34;5066288;28;20217;-59
2023/05/29 06:29:39;;;;;;;1999.90;999.90;;;;;;;24.46;80.42;95374.19;5049217;28;20312;-59
2023/05/29 06:32:05;;;;;;;1999.90;999.90;;;;;;;24.78;78.86;95383.38;5066105;28;20368;-61
2023/05/29 06:34:30;;;;;;;1999.90;999.90;;;;;;;24.27;80.27;95383.38;5065940;28;20205;-60
2023/05/29 06:36:56;;;;;;;1999.90;999.90;;;;;;;24.13;80.80;95378.66;5049005;28;20202;-61
2023/05/29 06:39:21;;;;;;;1999.90;999.90;;;;;;;24.72;79.64;95365.78;5065672;28;20197;-58
2023/05/29 06:41:46;;;;;;;1999.90;999.90;;;;;;;24.92;76.86;95376.88;5065571;28;20194;-58
2023/05/29 06:44:12;;;;;;;1999.90;999.90;;;;;;;25.61;72.78;95376.31;5065503;28;20194;-59
2023/05/29 06:46:37;;;;;;;1999.90;999.90;;;;;;;25.40;71.64;95388.91;5048939;28;20218;-60
2023/05/29 06:49:03;;;;;;;1999.90;999.90;;;;;;;25.51;70.40;95386.16;5048865;28;20201;-60
2023/05/29 06:51:28;;;;;;;1999.90;999.90;;;;;;;25.80;70.21;95387.81;5049288;28;20193;-59
2023/05/29 06:53:53;;;;;;;1999.90;999.90;;;;;;;24.73;76.27;95386.88;5048593;28;20194;-58
2023/05/29 06:56:19;;;;;;;1999.90;999.90;;;;;;;25.93;72.10;95388.88;5065791;28;20174;-59
2023/05/29 06:58:45;;;;;;;1999.90;999.90;;;;;;;26.44;66.33;95396.94;5065798;28;20208;-59
2023/05/29 07:01:11;;;;;;;1999.90;999.90;;;;;;;26.29;64.61;95390.81;5065107;28;20202;-59
2023/05/29 07:03:36;;;;;;;1999.90;999.90;;;;;;;27.57;60.80;95395.19;5065055;28;20205;-59
2023/05/29 07:06:02;;;;;;;1999.90;999.90;;;;;;;25.48;66.43;95400.38;5065390;28;20213;-58
2023/05/29 07:08:27;;;;;;;1999.90;999.90;;;;;;;25.45;70.24;95402.16;5048757;28;20198;-59
2023/05/29 07:10:53;;;;;;;1999.90;999.90;;;;;;;26.26;65.55;95397.41;5065172;28;20201;-59
2023/05/29 07:13:18;;;;;;;1999.90;999.90;;;;;;;26.06;64.66;95396.84;5065219;28;20296;-59
2023/05/29 07:15:44;;;;;;;1999.90;999.90;;;;;;;26.84;62.56;95396.50;5064917;28;20221;-59
2023/05/29 07:18:10;;;;;;;1999.90;999.90;;;;;;;26.19;65.51;95397.94;5065126;28;20216;-59
2023/05/29 07:20:38;;;;;;;1999.90;999.90;;;;;;;27.02;61.18;95390.41;5048464;28;20190;-59
2023/05/29 07:23:04;;;;;;;1999.90;999.90;;;;;;;26.33;65.89;95396.94;5065294;28;20197;-59
2023/05/29 07:25:30;;;;;;;1999.90;999.90;;;;;;;28.30;56.24;95405.66;5065258;28;20277;-59
2023/05/29 07:27:56;;;;;;;1999.90;999.90;;;;;;;28.89;54.84;95413.47;5048727;28;20162;-59
2023/05/29 07:30:21;;;;;;;1999.90;999.90;;;;;;;28.91;52.76;95408.09;5065034;28;20221;-59
2023/05/29 07:32:47;;;;;;;1999.90;999.90;;;;;;;28.68;55.51;95413.09;5065349;28;20197;-59
2023/05/29 07:35:12;;;;;;;1999.90;999.90;;;;;;;29.88;50.73;95412.59;5047895;28;20194;-58
2023/05/29 07:37:37;;;;;;;1999.90;999.90;;;;;;;30.30;49.01;95411.84;5064963;28;20198;-59
2023/05/29 07:40:05;;;;;;;1999.90;999.90;;;;;;;29.42;50.69;95418.44;5047846;28;20201;-59
2023/05/29 07:42:32;;;;;;;1999.90;999.90;;;;;;;27.12;56.54;95428.13;5064588;28;20194;-59
2023/05/29 07:44:57;;;;;;;1999.90;999.90;;;;;;;27.29;57.31;95422.53;5048147;28;20197;-59
2023/05/29 07:47:22;;;;;;;1999.90;999.90;;;;;;;27.93;54.71;95422.91;5064284;28;20221;-59
2023/05/29 07:49:48;;;;;;;1999.90;999.90;;;;;;;28.48;52.22;95432.41;5064455;28;20194;-59
2023/05/29 07:52:13;;;;;;;1999.90;999.90;;;;;;;29.55;47.62;95430.59;5064399;28;20200;-59
2023/05/29 07:54:38;;;;;;;1999.90;999.90;;;;;;;26.25;62.13;95423.91;5064278;28;20253;-60
2023/05/29 07:57:09;;;;;;;1999.90;999.90;;;;;;;27.64;58.55;95423.50;5064684;28;20170;-59
2023/05/29 07:59:35;;;;;;;1999.90;999.90;;;;;;;27.93;53.18;95428.53;5047721;28;20189;-59
2023/05/29 08:02:03;;;;;;;1999.90;999.90;;;;;;;27.96;55.63;95421.91;5064461;28;20193;-59
2023/05/29 08:04:28;;;;;;;1999.90;999.90;;;;;;;29.09;51.91;95418.72;5064776;28;20303;-59
2023/05/29 08:06:53;;;;;;;1999.90;999.90;;;;;;;30.06;49.12;95414.69;5047369;28;20213;-59
2023/05/29 08:09:19;;;;;;;1999.90;999.90;;;;;;;28.65;55.94;95421.84;5047457;28;20193;-59
2023/05/29 08:11:46;;;;;;;1999.90;999.90;;;;;;;27.81;57.25;95424.22;5064133;28;20193;-59
2023/05/29 08:14:12;;;;;;;1999.90;999.90;;;;;;;28.04;56.36;95422.09;5063965;28;20194;-59
2023/05/29 08:16:37;;;;;;;1999.90;999.90;;;;;;;28.57;55.24;95429.28;5064000;28;20193;-59
2023/05/29 08:19:03;;;;;;;1999.90;999.90;;;;;;;29.00;54.76;95419.00;5063637;28;20193;-59
2023/05/29 08:21:30;;;;;;;1999.90;999.90;;;;;;;27.80;60.21;95425.50;5047391;28;20189;-59
2023/05/29 08:23:55;;;;;;;1999.90;999.90;;;;;;;28.02;62.03;95424.69;5063679;28;20194;-60
2023/05/29 08:26:20;;;;;;;1999.90;999.90;;;;;;;29.11;58.20;95416.13;5063913;28;20217;-59
2023/05/29 08:28:46;;;;;;;1999.90;999.90;;;;;;;29.00;59.26;95404.94;5064083;28;20197;-59
2023/05/29 08:31:11;;;;;;;1999.90;999.90;;;;;;;29.49;58.35;95412.22;5047430;28;20435;-59
2023/05/29 08:33:37;;;;;;;1999.90;999.90;;;;;;;30.40;50.54;95412.97;5064044;28;20201;-59
2023/05/29 08:36:03;;;;;;;1999.90;999.90;;;;;;;30.02;54.45;95420.63;5047056;28;20191;-59
2023/05/29 08:38:29;;;;;;;1999.90;999.90;;;;;;;29.79;56.43;95418.59;5047430;28;20200;-59
2023/05/29 08:40:56;;;;;;;1999.90;999.90;;;;;;;29.87;53.16;95430.78;5063910;28;20198;-59
2023/05/29 08:43:22;;;;;;;1999.90;999.90;;;;;;;28.94;54.02;95423.91;5063676;28;20193;-59
2023/05/29 08:45:54;;;;;;;1999.90;999.90;;;;;;;28.67;58.99;95416.44;5051262;28;20288;-59
2023/05/29 08:48:23;;;;;;;1999.90;999.90;;;;;;;29.42;56.12;95418.44;5070280;28;20197;-59
2023/05/29 08:50:52;;;;;;;1999.90;999.90;;;;;;;29.82;57.61;95411.91;5070322;28;20261;-59
2023/05/29 08:53:18;;;;;;;1999.90;999.90;;;;;;;29.41;54.97;95416.88;5070426;28;20197;-59
2023/05/29 08:55:46;;;;;;;1999.90;999.90;;;;;;;29.37;54.36;95420.00;5053872;28;20197;-59
2023/05/29 08:58:13;;;;;;;1999.90;999.90;;;;;;;29.88;53.36;95421.03;5070443;28;20189;-59
2023/05/29 09:00:40;;;;;;;1999.90;999.90;;;;;;;28.76;53.94;95419.69;5053860;28;20197;-59
2023/05/29 09:03:06;;;;;;;1999.90;999.90;;;;;;;29.67;55.55;95422.78;5053187;28;20206;-59
2023/05/29 09:05:32;;;;;;;1999.90;999.90;;;;;;;28.57;59.48;95429.28;5053507;28;20209;-59
2023/05/29 09:07:58;;;;;;;1999.90;999.90;;;;;;;30.05;55.54;95413.91;5053384;28;20314;-59
2023/05/29 09:10:25;;;;;;;1999.90;999.90;;;;;;;29.04;55.08;95427.97;5053349;28;20246;-59
2023/05/29 09:12:51;;;;;;;1999.90;999.90;;;;;;;29.33;55.00;95415.94;5053197;28;20197;-61
2023/05/29 09:15:22;;;;;;;1999.90;999.90;;;;;;;29.42;53.90;95412.81;5069889;28;20197;-59
2023/05/29 09:17:59;;;;;;;1999.90;999.90;;;;;;;29.46;55.63;95418.91;5070453;28;20192;-59
2023/05/29 09:20:25;;;;;;;1999.90;999.90;;;;;;;28.48;58.04;95427.56;5070134;28;20223;-60
2023/05/29 09:22:55;;;;;;;1999.90;999.90;;;;;;;28.06;59.74;95413.94;5070297;28;20265;-59
2023/05/29 09:25:23;;;;;;;1999.90;999.90;;;;;;;29.42;55.62;95415.63;5053211;28;20193;-59
2023/05/29 09:28:08;;;;;;;1999.90;999.90;;;;;;;29.17;56.79;95416.88;5053111;28;20194;-59
2023/05/29 09:30:39;;;;;;;1999.90;999.90;;;;;;;28.74;56.24;95421.50;5052884;28;20186;-59
2023/05/29 09:33:08;;;;;;;1999.90;999.90;;;;;;;29.01;53.65;95431.78;5069974;28;20185;-60
2023/05/29 09:35:39;;;;;;;1999.90;999.90;;;;;;;28.65;58.19;95424.66;5069773;28;20182;-60
2023/05/29 09:38:05;;;;;;;1999.90;999.90;;;;;;;28.26;60.33;95411.53;5070251;28;20189;-60
2023/05/29 09:40:35;;;;;;;1999.90;999.90;;;;;;;28.30;58.64;95420.47;5070182;28;20208;-60
2023/05/29 09:43:16;;;;;;;1999.90;999.90;;;;;;;27.90;58.10;95423.19;5070282;28;20196;-60
2023/05/29 09:45:46;;;;;;;1999.90;999.90;;;;;;;28.23;58.48;95415.38;5053457;28;20216;-60
2023/05/29 09:48:16;;;;;;;1999.90;999.90;;;;;;;29.23;48.13;95415.53;5069667;28;20265;-60
2023/05/29 09:50:48;;;;;;;1999.90;999.90;;;;;;;28.99;48.48;95415.41;5069305;28;20196;-60
2023/05/29 09:53:24;;;;;;;1999.90;999.90;;;;;;;29.89;47.43;95426.13;5069725;28;20204;-60
2023/05/29 09:55:55;;;;;;;1999.90;999.90;;;;;;;29.66;49.46;95418.47;5068896;28;20203;-60
2023/05/29 09:58:22;;;;;;;1999.90;999.90;;;;;;;29.83;45.97;95424.69;5066058;28;20194;-61
2023/05/29 10:00:48;;;;;;;1999.90;999.90;;;;;;;28.96;50.63;95432.59;5049517;28;20217;-60
2023/05/29 10:03:14;;;;;;;1999.90;999.90;;;;;;;29.59;51.66;95410.59;5050167;28;20202;-60
2023/05/29 10:05:46;;;;;;;1999.90;999.90;;;;;;;29.85;45.87;95433.34;5049968;28;20328;-60
2023/05/29 10:08:14;;;;;;;1999.90;999.90;;;;;;;28.44;48.43;95426.31;5066530;28;20213;-60
2023/05/29 10:10:49;;;;;;;1999.90;999.90;;;;;;;27.95;50.09;95419.59;5066067;28;20239;-60
2023/05/29 10:13:16;;;;;;;1999.90;999.90;;;;;;;28.29;48.80;95410.50;5050211;28;20190;-59
2023/05/29 10:15:45;;;;;;;1999.90;999.90;;;;;;;27.83;48.21;95410.44;5065956;28;20203;-60
2023/05/29 10:18:20;;;;;;;1999.90;999.90;;;;;;;27.65;50.39;95413.03;5066428;28;20196;-60
2023/05/29 10:20:50;;;;;;;1999.90;999.90;;;;;;;27.83;48.93;95410.44;5066490;28;20188;-59
2023/05/29 10:23:16;;;;;;;1999.90;999.90;;;;;;;28.40;48.44;95406.84;5066074;28;20205;-61
2023/05/29 10:25:47;;;;;;;1999.90;999.90;;;;;;;28.01;46.78;95409.13;5066276;28;20261;-60
2023/05/29 10:28:13;;;;;;;1999.90;999.90;;;;;;;27.05;48.94;95411.81;5066103;28;20260;-60
2023/05/29 10:30:45;;;;;;;1999.90;999.90;;;;;;;26.49;51.58;95406.66;5065798;28;20213;-60
2023/05/29 10:33:33;;;;;;;1999.90;999.90;;;;;;;27.85;46.87;95410.69;5065790;28;20197;-59
2023/05/29 10:36:15;;;;;;;1999.90;999.90;;;;;;;27.78;49.58;95399.97;5049137;28;20201;-60
2023/05/29 10:38:47;;;;;;;1999.90;999.90;;;;;;;27.92;45.67;95404.56;5049635;28;20182;-60
2023/05/29 10:41:33;;;;;;;1999.90;999.90;;;;;;;26.67;50.11;95420.97;5049067;28;20197;-60
2023/05/29 10:44:00;;;;;;;1999.90;999.90;;;;;;;26.77;51.36;95408.22;5049446;28;20194;-61
2023/05/29 10:46:44;;;;;;;1999.90;999.90;;;;;;;27.87;48.14;95408.13;5065403;28;20213;-60
2023/05/29 10:49:20;;;;;;;1999.90;999.90;;;;;;;26.55;50.64;95413.78;5049111;28;20202;-60